sensor_id;sensor_type;location;lat;lon;timestamp;noise_LAeq;noise_LA_min;noise_LA_max;noise_LA01;noise_LA95
57092;Laerm;42968;52.094;4.328;2023-10-09T00:00:53;47.23;37.52;62.66;;
57092;Laerm;42968;52.094;4.328;2023-10-09T00:03:26;69.39;38.05;90.96;;
57092;Laerm;42968;52.094;4.328;2023-10-09T00:05:53;55.99;37.12;69.47;;
57092;Laerm;42968;52.094;4.328;2023-10-09T00:08:19;54.93;37.52;69.53;;
57092;Laerm;42968;52.094;4.328;2023-10-09T00:10:46;53.53;39.21;72.81;;
57092;Laerm;42968;52.094;4.328;2023-10-09T00:13:21;51.57;37.70;68.23;;
57092;Laerm;42968;52.094;4.328;2023-10-09T00:15:55;50.72;37.70;69.69;;
57092;Laerm;42968;52.094;4.328;2023-10-09T00:18:26;41.52;38.05;52.31;;
57092;Laerm;42968;52.094;4.328;2023-10-09T00:20:55;42.56;38.37;54.91;;
57092;Laerm;42968;52.094;4.328;2023-10-09T00:23:25;51.75;37.32;67.61;;
57092;Laerm;42968;52.094;4.328;2023-10-09T00:25:51;42.11;36.45;57.81;;
57092;Laerm;42968;52.094;4.328;2023-10-09T00:28:38;49.25;38.67;67.25;;
57092;Laerm;42968;52.094;4.328;2023-10-09T00:31:06;51.19;38.67;67.13;;
57092;Laerm;42968;52.094;4.328;2023-10-09T00:33:33;47.96;37.52;66.77;;
57092;Laerm;42968;52.094;4.328;2023-10-09T00:36:03;42.50;39.46;55.06;;
57092;Laerm;42968;52.094;4.328;2023-10-09T00:38:34;43.80;36.91;60.14;;
57092;Laerm;42968;52.094;4.328;2023-10-09T00:41:00;53.53;39.58;73.61;;
57092;Laerm;42968;52.094;4.328;2023-10-09T00:43:48;49.28;38.21;65.47;;
57092;Laerm;42968;52.094;4.328;2023-10-09T00:46:18;51.16;39.68;68.93;;
57092;Laerm;42968;52.094;4.328;2023-10-09T00:48:43;50.25;38.95;66.80;;
57092;Laerm;42968;52.094;4.328;2023-10-09T00:51:12;42.14;38.67;52.61;;
57092;Laerm;42968;52.094;4.328;2023-10-09T00:53:51;43.71;37.88;61.80;;
57092;Laerm;42968;52.094;4.328;2023-10-09T00:56:20;54.94;38.95;72.10;;
57092;Laerm;42968;52.094;4.328;2023-10-09T00:59:03;51.30;37.32;70.61;;
57092;Laerm;42968;52.094;4.328;2023-10-09T01:01:38;55.46;38.81;71.13;;
57092;Laerm;42968;52.094;4.328;2023-10-09T01:04:05;52.04;39.70;69.59;;
57092;Laerm;42968;52.094;4.328;2023-10-09T01:06:32;52.04;37.88;67.89;;
57092;Laerm;42968;52.094;4.328;2023-10-09T01:08:58;52.45;38.67;66.36;;
57092;Laerm;42968;52.094;4.328;2023-10-09T01:11:34;55.49;38.21;71.86;;
57092;Laerm;42968;52.094;4.328;2023-10-09T01:14:03;53.99;38.05;71.33;;
57092;Laerm;42968;52.094;4.328;2023-10-09T01:16:31;53.38;38.95;69.55;;
57092;Laerm;42968;52.094;4.328;2023-10-09T01:18:57;41.51;37.12;47.70;;
57092;Laerm;42968;52.094;4.328;2023-10-09T01:21:23;40.78;36.91;43.58;;
57092;Laerm;42968;52.094;4.328;2023-10-09T01:23:56;53.89;37.88;68.90;;
57092;Laerm;42968;52.094;4.328;2023-10-09T01:26:28;53.26;37.32;70.96;;
57092;Laerm;42968;52.094;4.328;2023-10-09T01:28:58;54.55;36.91;69.23;;
57092;Laerm;42968;52.094;4.328;2023-10-09T01:31:25;40.92;36.45;51.92;;
57092;Laerm;42968;52.094;4.328;2023-10-09T01:34:02;56.53;37.70;73.24;;
57092;Laerm;42968;52.094;4.328;2023-10-09T01:36:29;53.79;38.21;67.59;;
57092;Laerm;42968;52.094;4.328;2023-10-09T01:39:00;56.40;38.67;72.06;;
57092;Laerm;42968;52.094;4.328;2023-10-09T01:41:52;52.51;35.86;70.74;;
57092;Laerm;42968;52.094;4.328;2023-10-09T01:44:25;41.58;37.52;60.33;;
57092;Laerm;42968;52.094;4.328;2023-10-09T01:46:51;49.65;38.37;68.88;;
57092;Laerm;42968;52.094;4.328;2023-10-09T01:49:19;49.24;36.98;61.87;;
57092;Laerm;42968;52.094;4.328;2023-10-09T01:51:55;49.74;37.52;66.37;;
57092;Laerm;42968;52.094;4.328;2023-10-09T01:54:20;41.10;36.20;47.90;;
57092;Laerm;42968;52.094;4.328;2023-10-09T01:57:06;51.79;37.52;73.29;;
57092;Laerm;42968;52.094;4.328;2023-10-09T01:59:37;41.62;38.05;52.28;;
57092;Laerm;42968;52.094;4.328;2023-10-09T02:02:09;56.31;36.91;72.65;;
57092;Laerm;42968;52.094;4.328;2023-10-09T02:05:04;44.96;37.70;63.44;;
57092;Laerm;42968;52.094;4.328;2023-10-09T02:07:34;48.59;36.91;65.99;;
57092;Laerm;42968;52.094;4.328;2023-10-09T02:10:06;54.99;37.12;74.85;;
57092;Laerm;42968;52.094;4.328;2023-10-09T02:12:36;48.06;36.69;80.59;;
57092;Laerm;42968;52.094;4.328;2023-10-09T02:15:02;48.88;35.94;62.95;;
57092;Laerm;42968;52.094;4.328;2023-10-09T02:17:40;41.56;35.36;47.22;;
57092;Laerm;42968;52.094;4.328;2023-10-09T02:20:17;53.24;37.70;72.25;;
57092;Laerm;42968;52.094;4.328;2023-10-09T02:22:53;51.08;37.52;71.44;;
57092;Laerm;42968;52.094;4.328;2023-10-09T02:25:18;53.40;37.12;69.37;;
57092;Laerm;42968;52.094;4.328;2023-10-09T02:27:46;42.89;38.37;56.02;;
57092;Laerm;42968;52.094;4.328;2023-10-09T02:30:18;52.58;37.32;67.61;;
57092;Laerm;42968;52.094;4.328;2023-10-09T02:32:52;49.99;37.88;70.12;;
57092;Laerm;42968;52.094;4.328;2023-10-09T02:35:17;51.46;38.67;69.33;;
57092;Laerm;42968;52.094;4.328;2023-10-09T02:37:46;51.66;37.88;71.99;;
57092;Laerm;42968;52.094;4.328;2023-10-09T02:40:12;54.92;40.23;72.48;;
57092;Laerm;42968;52.094;4.328;2023-10-09T02:42:47;58.85;41.75;71.41;;
57092;Laerm;42968;52.094;4.328;2023-10-09T02:45:14;41.87;36.69;51.69;;
57092;Laerm;42968;52.094;4.328;2023-10-09T02:47:41;55.97;37.32;71.20;;
57092;Laerm;42968;52.094;4.328;2023-10-09T02:50:08;43.34;38.37;61.16;;
57092;Laerm;42968;52.094;4.328;2023-10-09T02:52:44;54.36;37.52;71.93;;
57092;Laerm;42968;52.094;4.328;2023-10-09T02:55:12;57.89;40.53;75.36;;
57092;Laerm;42968;52.094;4.328;2023-10-09T02:57:48;58.27;38.37;74.24;;
57092;Laerm;42968;52.094;4.328;2023-10-09T03:00:16;57.96;39.34;75.64;;
57092;Laerm;42968;52.094;4.328;2023-10-09T03:02:53;51.53;38.95;68.68;;
57092;Laerm;42968;52.094;4.328;2023-10-09T03:05:19;59.00;39.46;75.62;;
57092;Laerm;42968;52.094;4.328;2023-10-09T03:07:45;57.97;39.58;71.60;;
57092;Laerm;42968;52.094;4.328;2023-10-09T03:10:11;56.37;37.88;69.96;;
57092;Laerm;42968;52.094;4.328;2023-10-09T03:12:36;63.26;40.43;82.05;;
57092;Laerm;42968;52.094;4.328;2023-10-09T03:15:02;55.07;38.67;74.65;;
57092;Laerm;42968;52.094;4.328;2023-10-09T03:17:30;58.53;40.33;74.06;;
57092;Laerm;42968;52.094;4.328;2023-10-09T03:19:59;60.63;40.43;75.45;;
57092;Laerm;42968;52.094;4.328;2023-10-09T03:22:27;62.35;40.98;75.35;;
57092;Laerm;42968;52.094;4.328;2023-10-09T03:24:52;62.66;42.47;76.17;;
57092;Laerm;42968;52.094;4.328;2023-10-09T03:27:18;61.73;42.47;74.27;;
57092;Laerm;42968;52.094;4.328;2023-10-09T03:29:43;61.34;41.75;75.08;;
57092;Laerm;42968;52.094;4.328;2023-10-09T03:32:14;62.16;41.82;79.37;;
57092;Laerm;42968;52.094;4.328;2023-10-09T03:34:40;62.95;43.29;77.45;;
57092;Laerm;42968;52.094;4.328;2023-10-09T03:37:05;60.08;41.75;75.85;;
57092;Laerm;42968;52.094;4.328;2023-10-09T03:39:31;63.03;43.90;76.45;;
57092;Laerm;42968;52.094;4.328;2023-10-09T03:42:03;62.34;43.19;75.32;;
57092;Laerm;42968;52.094;4.328;2023-10-09T03:44:33;63.76;44.19;78.80;;
57092;Laerm;42968;52.094;4.328;2023-10-09T03:47:00;67.33;45.04;85.70;;
57092;Laerm;42968;52.094;4.328;2023-10-09T03:49:27;62.18;42.93;76.41;;
57092;Laerm;42968;52.094;4.328;2023-10-09T03:51:52;63.24;42.76;78.99;;
57092;Laerm;42968;52.094;4.328;2023-10-09T03:54:18;62.41;44.07;76.60;;
57092;Laerm;42968;52.094;4.328;2023-10-09T03:56:47;65.40;43.90;80.09;;
57092;Laerm;42968;52.094;4.328;2023-10-09T03:59:18;62.00;42.65;74.71;;
57092;Laerm;42968;52.094;4.328;2023-10-09T04:01:49;63.04;43.68;80.24;;
57092;Laerm;42968;52.094;4.328;2023-10-09T04:04:18;62.42;44.23;74.53;;
57092;Laerm;42968;52.094;4.328;2023-10-09T04:06:47;63.99;42.88;75.59;;
57092;Laerm;42968;52.094;4.328;2023-10-09T04:09:12;62.79;43.24;74.50;;
57092;Laerm;42968;52.094;4.328;2023-10-09T04:11:47;63.02;43.19;74.65;;
57092;Laerm;42968;52.094;4.328;2023-10-09T04:14:15;65.34;45.01;74.92;;
57092;Laerm;42968;52.094;4.328;2023-10-09T04:16:58;65.37;42.65;77.39;;
57092;Laerm;42968;52.094;4.328;2023-10-09T04:19:52;63.75;45.83;74.20;;
57092;Laerm;42968;52.094;4.328;2023-10-09T04:22:39;66.57;47.17;75.83;;
57092;Laerm;42968;52.094;4.328;2023-10-09T04:25:14;64.93;46.40;78.54;;
57092;Laerm;42968;52.094;4.328;2023-10-09T04:27:40;64.59;45.77;74.77;;
57092;Laerm;42968;52.094;4.328;2023-10-09T04:30:06;66.13;48.00;78.82;;
57092;Laerm;42968;52.094;4.328;2023-10-09T04:32:32;66.49;47.04;77.24;;
57092;Laerm;42968;52.094;4.328;2023-10-09T04:34:59;65.47;46.59;76.92;;
57092;Laerm;42968;52.094;4.328;2023-10-09T04:37:43;70.35;46.18;88.53;;
57092;Laerm;42968;52.094;4.328;2023-10-09T04:40:10;68.58;49.06;86.18;;
57092;Laerm;42968;52.094;4.328;2023-10-09T04:42:58;68.20;45.36;83.61;;
57092;Laerm;42968;52.094;4.328;2023-10-09T04:45:23;66.15;44.47;76.33;;
57092;Laerm;42968;52.094;4.328;2023-10-09T04:48:07;67.30;53.50;79.27;;
57092;Laerm;42968;52.094;4.328;2023-10-09T04:50:33;66.95;46.63;75.73;;
57092;Laerm;42968;52.094;4.328;2023-10-09T04:53:03;67.37;50.98;78.49;;
57092;Laerm;42968;52.094;4.328;2023-10-09T04:55:47;67.83;47.91;81.18;;
57092;Laerm;42968;52.094;4.328;2023-10-09T04:58:22;68.37;47.17;79.97;;
57092;Laerm;42968;52.094;4.328;2023-10-09T05:00:54;69.10;49.82;82.99;;
57092;Laerm;42968;52.094;4.328;2023-10-09T05:03:22;68.17;51.57;82.08;;
57092;Laerm;42968;52.094;4.328;2023-10-09T05:05:51;67.00;47.88;79.14;;
57092;Laerm;42968;52.094;4.328;2023-10-09T05:08:23;66.99;46.97;74.93;;
57092;Laerm;42968;52.094;4.328;2023-10-09T05:10:52;67.39;49.74;77.55;;
57092;Laerm;42968;52.094;4.328;2023-10-09T05:13:33;67.06;53.66;75.34;;
57092;Laerm;42968;52.094;4.328;2023-10-09T05:16:16;68.75;52.63;78.91;;
57092;Laerm;42968;52.094;4.328;2023-10-09T05:18:50;67.33;53.99;77.38;;
57092;Laerm;42968;52.094;4.328;2023-10-09T05:21:31;68.81;47.68;79.67;;
57092;Laerm;42968;52.094;4.328;2023-10-09T05:24:01;66.72;50.92;75.50;;
57092;Laerm;42968;52.094;4.328;2023-10-09T05:26:39;68.21;46.48;79.56;;
57092;Laerm;42968;52.094;4.328;2023-10-09T05:29:17;67.99;45.75;78.30;;
57092;Laerm;42968;52.094;4.328;2023-10-09T05:31:58;67.62;49.16;76.84;;
57092;Laerm;42968;52.094;4.328;2023-10-09T05:34:43;66.98;47.30;75.78;;
57092;Laerm;42968;52.094;4.328;2023-10-09T05:37:27;69.14;50.90;79.46;;
57092;Laerm;42968;52.094;4.328;2023-10-09T05:40:02;68.28;47.10;77.42;;
57092;Laerm;42968;52.094;4.328;2023-10-09T05:42:31;69.42;48.51;83.43;;
57092;Laerm;42968;52.094;4.328;2023-10-09T05:45:06;68.34;51.31;80.22;;
57092;Laerm;42968;52.094;4.328;2023-10-09T05:47:51;67.48;51.26;76.98;;
57092;Laerm;42968;52.094;4.328;2023-10-09T05:50:29;67.46;53.31;77.49;;
57092;Laerm;42968;52.094;4.328;2023-10-09T05:52:55;68.19;49.51;75.87;;
57092;Laerm;42968;52.094;4.328;2023-10-09T05:55:24;68.66;51.15;78.78;;
57092;Laerm;42968;52.094;4.328;2023-10-09T05:58:08;71.02;50.48;80.45;;
57092;Laerm;42968;52.094;4.328;2023-10-09T06:00:52;69.92;47.99;78.18;;
57092;Laerm;42968;52.094;4.328;2023-10-09T06:03:36;69.15;46.84;79.94;;
57092;Laerm;42968;52.094;4.328;2023-10-09T06:06:14;69.36;55.63;83.77;;
57092;Laerm;42968;52.094;4.328;2023-10-09T06:09:01;67.95;56.29;78.66;;
57092;Laerm;42968;52.094;4.328;2023-10-09T06:11:35;68.03;53.12;74.76;;
57092;Laerm;42968;52.094;4.328;2023-10-09T06:14:03;68.81;57.40;79.86;;
57092;Laerm;42968;52.094;4.328;2023-10-09T06:16:33;70.68;57.35;86.44;;
57092;Laerm;42968;52.094;4.328;2023-10-09T06:19:11;71.06;58.07;93.73;;
57092;Laerm;42968;52.094;4.328;2023-10-09T06:21:48;69.04;55.30;92.82;;
57092;Laerm;42968;52.094;4.328;2023-10-09T06:24:17;69.05;56.14;80.93;;
57092;Laerm;42968;52.094;4.328;2023-10-09T06:26:43;69.65;54.54;79.07;;
57092;Laerm;42968;52.094;4.328;2023-10-09T06:29:27;70.09;55.55;84.26;;
57092;Laerm;42968;52.094;4.328;2023-10-09T06:34:46;71.00;47.08;84.83;;
57092;Laerm;42968;52.094;4.328;2023-10-09T06:37:17;67.43;55.84;80.88;;
57092;Laerm;42968;52.094;4.328;2023-10-09T06:39:51;68.70;53.45;77.03;;
57092;Laerm;42968;52.094;4.328;2023-10-09T06:42:36;69.53;50.58;78.24;;
57092;Laerm;42968;52.094;4.328;2023-10-09T06:45:05;69.56;56.30;79.80;;
57092;Laerm;42968;52.094;4.328;2023-10-09T06:47:41;69.53;55.16;80.70;;
57092;Laerm;42968;52.094;4.328;2023-10-09T06:50:12;67.75;52.44;78.67;;
57092;Laerm;42968;52.094;4.328;2023-10-09T06:52:50;69.83;54.51;80.65;;
57092;Laerm;42968;52.094;4.328;2023-10-09T06:55:40;69.54;50.62;77.11;;
57092;Laerm;42968;52.094;4.328;2023-10-09T06:58:16;68.01;54.45;76.07;;
57092;Laerm;42968;52.094;4.328;2023-10-09T07:00:47;66.95;52.57;80.10;;
57092;Laerm;42968;52.094;4.328;2023-10-09T07:03:31;69.93;59.78;79.35;;
57092;Laerm;42968;52.094;4.328;2023-10-09T07:06:06;68.69;51.44;81.07;;
57092;Laerm;42968;52.094;4.328;2023-10-09T07:08:38;69.90;47.73;80.12;;
57092;Laerm;42968;52.094;4.328;2023-10-09T07:11:04;67.92;48.13;76.85;;
57092;Laerm;42968;52.094;4.328;2023-10-09T07:14:08;69.71;52.85;84.17;;
57092;Laerm;42968;52.094;4.328;2023-10-09T07:16:33;70.41;53.29;83.53;;
57092;Laerm;42968;52.094;4.328;2023-10-09T07:19:05;67.76;48.70;78.86;;
57092;Laerm;42968;52.094;4.328;2023-10-09T07:21:56;69.36;48.67;80.59;;
57092;Laerm;42968;52.094;4.328;2023-10-09T07:24:27;69.73;49.38;80.69;;
57092;Laerm;42968;52.094;4.328;2023-10-09T07:27:03;66.75;51.15;75.38;;
57092;Laerm;42968;52.094;4.328;2023-10-09T07:29:34;69.25;53.70;79.18;;
57092;Laerm;42968;52.094;4.328;2023-10-09T07:32:12;69.15;48.58;78.75;;
57092;Laerm;42968;52.094;4.328;2023-10-09T07:34:44;67.34;50.85;75.21;;
57092;Laerm;42968;52.094;4.328;2023-10-09T07:39:44;67.84;51.72;74.88;;
57092;Laerm;42968;52.094;4.328;2023-10-09T07:42:15;69.61;56.30;84.67;;
57092;Laerm;42968;52.094;4.328;2023-10-09T07:44:44;71.59;50.56;87.61;;
57092;Laerm;42968;52.094;4.328;2023-10-09T07:47:18;68.93;50.93;78.23;;
57092;Laerm;42968;52.094;4.328;2023-10-09T07:49:47;67.68;52.09;75.85;;
57092;Laerm;42968;52.094;4.328;2023-10-09T07:52:19;68.96;45.66;81.93;;
57092;Laerm;42968;52.094;4.328;2023-10-09T07:54:47;68.73;50.38;81.36;;
57092;Laerm;42968;52.094;4.328;2023-10-09T07:57:16;69.10;51.66;87.99;;
57092;Laerm;42968;52.094;4.328;2023-10-09T07:59:41;67.04;51.15;79.02;;
57092;Laerm;42968;52.094;4.328;2023-10-09T08:02:19;70.23;50.30;80.79;;
57092;Laerm;42968;52.094;4.328;2023-10-09T08:04:56;67.64;52.65;79.35;;
57092;Laerm;42968;52.094;4.328;2023-10-09T08:07:28;67.75;48.40;79.96;;
57092;Laerm;42968;52.094;4.328;2023-10-09T08:10:03;67.36;51.39;76.15;;
57092;Laerm;42968;52.094;4.328;2023-10-09T08:12:43;67.70;50.54;76.60;;
57092;Laerm;42968;52.094;4.328;2023-10-09T08:15:09;69.63;51.85;82.58;;
57092;Laerm;42968;52.094;4.328;2023-10-09T08:17:51;69.02;49.93;84.14;;
57092;Laerm;42968;52.094;4.328;2023-10-09T08:20:20;67.18;48.40;77.30;;
57092;Laerm;42968;52.094;4.328;2023-10-09T08:22:50;68.11;50.24;78.91;;
57092;Laerm;42968;52.094;4.328;2023-10-09T08:25:17;68.19;50.18;92.33;;
57092;Laerm;42968;52.094;4.328;2023-10-09T08:28:01;67.07;51.02;75.67;;
57092;Laerm;42968;52.094;4.328;2023-10-09T08:30:45;68.46;52.89;77.00;;
57092;Laerm;42968;52.094;4.328;2023-10-09T08:33:20;69.03;55.57;79.26;;
57092;Laerm;42968;52.094;4.328;2023-10-09T08:35:52;66.97;48.08;74.96;;
57092;Laerm;42968;52.094;4.328;2023-10-09T08:38:21;68.42;52.97;77.39;;
57092;Laerm;42968;52.094;4.328;2023-10-09T08:40:49;67.46;46.40;81.54;;
57092;Laerm;42968;52.094;4.328;2023-10-09T08:48:12;67.36;49.45;81.05;;
57092;Laerm;42968;52.094;4.328;2023-10-09T08:50:40;69.36;48.29;78.78;;
57092;Laerm;42968;52.094;4.328;2023-10-09T08:53:07;68.89;50.55;78.60;;
57092;Laerm;42968;52.094;4.328;2023-10-09T08:55:32;67.70;50.16;80.19;;
57092;Laerm;42968;52.094;4.328;2023-10-09T08:57:57;67.10;50.00;75.71;;
57092;Laerm;42968;52.094;4.328;2023-10-09T09:00:23;68.63;48.91;80.75;;
57092;Laerm;42968;52.094;4.328;2023-10-09T09:02:52;67.00;48.45;79.54;;
57092;Laerm;42968;52.094;4.328;2023-10-09T09:05:18;66.56;51.57;73.94;;
57092;Laerm;42968;52.094;4.328;2023-10-09T09:07:44;66.03;50.23;74.90;;
57092;Laerm;42968;52.094;4.328;2023-10-09T09:10:09;66.69;49.44;76.08;;
57092;Laerm;42968;52.094;4.328;2023-10-09T09:12:45;70.27;56.40;89.56;;
57092;Laerm;42968;52.094;4.328;2023-10-09T09:15:14;67.97;52.08;77.18;;
57092;Laerm;42968;52.094;4.328;2023-10-09T09:17:44;66.62;46.45;78.25;;
57092;Laerm;42968;52.094;4.328;2023-10-09T09:20:20;67.15;45.36;77.27;;
57092;Laerm;42968;52.094;4.328;2023-10-09T09:22:53;68.11;48.13;78.37;;
57092;Laerm;42968;52.094;4.328;2023-10-09T09:25:22;80.83;50.83;104.21;;
57092;Laerm;42968;52.094;4.328;2023-10-09T09:27:49;68.68;49.60;78.20;;
57092;Laerm;42968;52.094;4.328;2023-10-09T09:30:26;81.11;51.61;105.55;;
57092;Laerm;42968;52.094;4.328;2023-10-09T09:32:58;67.99;52.33;79.36;;
57092;Laerm;42968;52.094;4.328;2023-10-09T09:36:00;68.89;56.57;82.35;;
57092;Laerm;42968;52.094;4.328;2023-10-09T09:38:28;82.29;47.72;103.33;;
57092;Laerm;42968;52.094;4.328;2023-10-09T09:40:57;67.44;46.69;77.55;;
57092;Laerm;42968;52.094;4.328;2023-10-09T09:43:23;68.20;48.58;80.63;;
57092;Laerm;42968;52.094;4.328;2023-10-09T09:45:50;72.81;51.75;91.02;;
57092;Laerm;42968;52.094;4.328;2023-10-09T09:48:18;67.38;47.10;79.19;;
57092;Laerm;42968;52.094;4.328;2023-10-09T09:50:44;67.31;53.16;77.68;;
57092;Laerm;42968;52.094;4.328;2023-10-09T09:53:13;67.82;52.53;78.14;;
57092;Laerm;42968;52.094;4.328;2023-10-09T09:55:46;68.45;49.53;79.48;;
57092;Laerm;42968;52.094;4.328;2023-10-09T09:58:21;67.20;51.28;80.10;;
57092;Laerm;42968;52.094;4.328;2023-10-09T10:00:48;70.88;51.42;80.92;;
57092;Laerm;42968;52.094;4.328;2023-10-09T10:03:26;68.90;49.74;80.94;;
57092;Laerm;42968;52.094;4.328;2023-10-09T10:05:52;67.79;44.69;83.41;;
57092;Laerm;42968;52.094;4.328;2023-10-09T10:08:21;67.25;48.37;78.11;;
57092;Laerm;42968;52.094;4.328;2023-10-09T10:10:55;68.07;56.73;78.07;;
57092;Laerm;42968;52.094;4.328;2023-10-09T10:16:07;68.59;51.55;77.46;;
57092;Laerm;42968;52.094;4.328;2023-10-09T10:21:25;67.91;49.04;76.77;;
57092;Laerm;42968;52.094;4.328;2023-10-09T10:23:56;66.88;51.52;76.32;;
57092;Laerm;42968;52.094;4.328;2023-10-09T10:26:30;68.91;47.79;78.19;;
57092;Laerm;42968;52.094;4.328;2023-10-09T10:29:17;68.08;55.55;79.58;;
57092;Laerm;42968;52.094;4.328;2023-10-09T10:31:56;66.27;45.72;74.43;;
57092;Laerm;42968;52.094;4.328;2023-10-09T10:34:22;67.87;47.44;77.95;;
57092;Laerm;42968;52.094;4.328;2023-10-09T10:36:49;66.60;48.55;77.92;;
57092;Laerm;42968;52.094;4.328;2023-10-09T10:39:17;68.16;46.07;78.72;;
57092;Laerm;42968;52.094;4.328;2023-10-09T10:42:07;68.89;50.57;81.91;;
57092;Laerm;42968;52.094;4.328;2023-10-09T10:44:34;68.62;54.12;76.18;;
57092;Laerm;42968;52.094;4.328;2023-10-09T10:47:01;66.95;47.67;75.58;;
57092;Laerm;42968;52.094;4.328;2023-10-09T10:49:26;68.29;50.56;78.16;;
57092;Laerm;42968;52.094;4.328;2023-10-09T10:52:01;67.86;48.57;79.28;;
57092;Laerm;42968;52.094;4.328;2023-10-09T10:54:40;70.28;51.60;81.02;;
57092;Laerm;42968;52.094;4.328;2023-10-09T10:57:13;69.23;51.05;79.67;;
57092;Laerm;42968;52.094;4.328;2023-10-09T10:59:44;67.81;47.28;76.27;;
57092;Laerm;42968;52.094;4.328;2023-10-09T11:02:10;69.19;50.72;79.89;;
57092;Laerm;42968;52.094;4.328;2023-10-09T11:04:35;69.83;51.42;80.71;;
57092;Laerm;42968;52.094;4.328;2023-10-09T11:07:02;67.16;49.06;75.58;;
57092;Laerm;42968;52.094;4.328;2023-10-09T11:10:03;67.63;48.40;78.57;;
57092;Laerm;42968;52.094;4.328;2023-10-09T11:15:07;68.32;47.98;77.61;;
57092;Laerm;42968;52.094;4.328;2023-10-09T11:18:05;67.80;48.96;76.35;;
57092;Laerm;42968;52.094;4.328;2023-10-09T11:20:54;66.71;48.39;75.17;;
57092;Laerm;42968;52.094;4.328;2023-10-09T11:23:43;68.02;48.32;76.40;;
57092;Laerm;42968;52.094;4.328;2023-10-09T11:26:18;66.51;53.54;74.71;;
57092;Laerm;42968;52.094;4.328;2023-10-09T11:32:00;68.46;47.72;81.03;;
57092;Laerm;42968;52.094;4.328;2023-10-09T11:34:26;67.73;51.33;75.23;;
57092;Laerm;42968;52.094;4.328;2023-10-09T11:37:27;68.14;48.63;78.99;;
57092;Laerm;42968;52.094;4.328;2023-10-09T11:39:55;68.58;46.80;82.97;;
57092;Laerm;42968;52.094;4.328;2023-10-09T11:42:21;68.05;49.25;74.83;;
57092;Laerm;42968;52.094;4.328;2023-10-09T11:45:06;67.31;50.66;79.46;;
57092;Laerm;42968;52.094;4.328;2023-10-09T11:47:50;67.51;51.42;77.86;;
57092;Laerm;42968;52.094;4.328;2023-10-09T11:50:41;68.89;48.02;76.94;;
57092;Laerm;42968;52.094;4.328;2023-10-09T11:53:19;67.65;49.24;76.71;;
57092;Laerm;42968;52.094;4.328;2023-10-09T11:55:47;65.90;46.28;76.40;;
57092;Laerm;42968;52.094;4.328;2023-10-09T11:58:15;68.60;46.57;76.97;;
57092;Laerm;42968;52.094;4.328;2023-10-09T12:00:54;68.73;52.61;79.81;;
57092;Laerm;42968;52.094;4.328;2023-10-09T12:03:24;68.11;46.33;83.77;;
57092;Laerm;42968;52.094;4.328;2023-10-09T12:05:53;68.10;50.77;76.35;;
57092;Laerm;42968;52.094;4.328;2023-10-09T12:08:21;69.35;49.40;79.83;;
57092;Laerm;42968;52.094;4.328;2023-10-09T12:10:47;67.91;48.77;79.84;;
57092;Laerm;42968;52.094;4.328;2023-10-09T12:13:13;68.74;51.17;78.51;;
57092;Laerm;42968;52.094;4.328;2023-10-09T12:15:40;68.55;49.70;80.71;;
57092;Laerm;42968;52.094;4.328;2023-10-09T12:18:08;68.20;48.07;79.11;;
57092;Laerm;42968;52.094;4.328;2023-10-09T12:20:39;68.64;47.81;76.28;;
57092;Laerm;42968;52.094;4.328;2023-10-09T12:23:04;68.93;48.29;83.55;;
57092;Laerm;42968;52.094;4.328;2023-10-09T12:25:31;68.38;45.97;79.16;;
57092;Laerm;42968;52.094;4.328;2023-10-09T12:28:00;67.17;54.69;75.72;;
57092;Laerm;42968;52.094;4.328;2023-10-09T12:30:27;69.33;54.21;78.02;;
57092;Laerm;42968;52.094;4.328;2023-10-09T12:32:54;67.69;50.10;76.98;;
57092;Laerm;42968;52.094;4.328;2023-10-09T12:35:19;69.90;48.63;83.34;;
57092;Laerm;42968;52.094;4.328;2023-10-09T12:37:45;70.87;53.57;86.38;;
57092;Laerm;42968;52.094;4.328;2023-10-09T12:40:11;68.24;49.19;80.85;;
57092;Laerm;42968;52.094;4.328;2023-10-09T12:42:36;68.78;49.62;84.47;;
57092;Laerm;42968;52.094;4.328;2023-10-09T12:45:02;68.82;50.24;77.02;;
57092;Laerm;42968;52.094;4.328;2023-10-09T12:47:33;68.49;51.28;77.66;;
57092;Laerm;42968;52.094;4.328;2023-10-09T12:49:58;67.91;55.52;74.52;;
57092;Laerm;42968;52.094;4.328;2023-10-09T12:52:24;69.74;51.43;77.13;;
57092;Laerm;42968;52.094;4.328;2023-10-09T12:54:54;67.06;48.90;76.20;;
57092;Laerm;42968;52.094;4.328;2023-10-09T12:57:20;68.78;48.15;76.70;;
57092;Laerm;42968;52.094;4.328;2023-10-09T12:59:45;69.13;47.98;79.52;;
57092;Laerm;42968;52.094;4.328;2023-10-09T13:02:13;71.33;52.71;84.55;;
57092;Laerm;42968;52.094;4.328;2023-10-09T13:04:53;68.45;51.23;77.19;;
57092;Laerm;42968;52.094;4.328;2023-10-09T13:07:18;69.16;49.59;77.45;;
57092;Laerm;42968;52.094;4.328;2023-10-09T13:09:47;70.35;55.48;84.58;;
57092;Laerm;42968;52.094;4.328;2023-10-09T13:12:32;68.09;54.94;77.20;;
57092;Laerm;42968;52.094;4.328;2023-10-09T13:14:57;68.84;53.16;79.71;;
57092;Laerm;42968;52.094;4.328;2023-10-09T13:17:22;67.52;48.95;76.30;;
57092;Laerm;42968;52.094;4.328;2023-10-09T13:19:51;67.74;52.49;74.87;;
57092;Laerm;42968;52.094;4.328;2023-10-09T13:22:17;69.42;53.85;78.50;;
57092;Laerm;42968;52.094;4.328;2023-10-09T13:24:42;69.03;47.77;81.58;;
57092;Laerm;42968;52.094;4.328;2023-10-09T13:27:08;71.07;52.09;87.80;;
57092;Laerm;42968;52.094;4.328;2023-10-09T13:29:35;68.66;51.84;83.04;;
57092;Laerm;42968;52.094;4.328;2023-10-09T13:32:04;73.32;54.57;90.72;;
57092;Laerm;42968;52.094;4.328;2023-10-09T13:34:38;71.15;47.68;89.14;;
57092;Laerm;42968;52.094;4.328;2023-10-09T13:37:09;68.33;48.73;77.96;;
57092;Laerm;42968;52.094;4.328;2023-10-09T13:39:38;69.08;51.45;78.23;;
57092;Laerm;42968;52.094;4.328;2023-10-09T13:42:05;70.19;47.90;79.76;;
57092;Laerm;42968;52.094;4.328;2023-10-09T13:44:32;68.06;55.91;76.56;;
57092;Laerm;42968;52.094;4.328;2023-10-09T13:47:02;68.24;45.45;79.24;;
57092;Laerm;42968;52.094;4.328;2023-10-09T13:49:30;69.43;44.31;77.08;;
57092;Laerm;42968;52.094;4.328;2023-10-09T13:51:56;68.08;48.81;80.29;;
57092;Laerm;42968;52.094;4.328;2023-10-09T13:54:22;70.21;50.44;78.17;;
57092;Laerm;42968;52.094;4.328;2023-10-09T13:56:53;67.66;50.01;75.51;;
57092;Laerm;42968;52.094;4.328;2023-10-09T13:59:19;69.24;47.54;79.73;;
57092;Laerm;42968;52.094;4.328;2023-10-09T14:01:46;68.93;51.47;75.84;;
57092;Laerm;42968;52.094;4.328;2023-10-09T14:04:13;68.56;52.42;76.13;;
57092;Laerm;42968;52.094;4.328;2023-10-09T14:06:43;68.30;52.30;76.73;;
57092;Laerm;42968;52.094;4.328;2023-10-09T14:09:09;69.93;57.24;79.85;;
57092;Laerm;42968;52.094;4.328;2023-10-09T14:11:35;67.69;50.58;74.84;;
57092;Laerm;42968;52.094;4.328;2023-10-09T14:14:03;67.72;49.18;76.87;;
57092;Laerm;42968;52.094;4.328;2023-10-09T14:16:28;69.49;48.98;79.29;;
57092;Laerm;42968;52.094;4.328;2023-10-09T14:18:54;68.10;49.79;77.46;;
57092;Laerm;42968;52.094;4.328;2023-10-09T14:21:22;68.61;46.43;82.00;;
57092;Laerm;42968;52.094;4.328;2023-10-09T14:23:50;69.78;51.37;79.64;;
57092;Laerm;42968;52.094;4.328;2023-10-09T14:26:15;69.13;48.12;78.99;;
57092;Laerm;42968;52.094;4.328;2023-10-09T14:28:43;69.70;47.20;80.81;;
57092;Laerm;42968;52.094;4.328;2023-10-09T14:31:08;67.46;53.58;74.94;;